マニラ/ニノイ・アキノ の空港の天気 - METARとTAF

ニノイ・アキノ国際空港 ( RPLL / MNL ) - フィリピン マニラ
飛行場実況気象(Metar)
観測時間06/18 03:00 PHT (06/17 19:00 UTC)
風向・風速静穏 0m/s
視程9000m
天気現象
少しの雲 雲底高度 760m
全天の8割程度の雲 雲底高度 3050m
気温29℃
湿度84%
気圧1010hPa
METARRPLL 171900Z 00000KT 9000 FEW025 BKN100 29/26 Q1010 NOSIG RMK A2983
過去の天気等 Google飛行場航空写真 Wunderground天気予報

過去48時間のMETAR

飛行場予報(TAF)
発表時間: 6/18 01:00 PHT (6/17 17:00 UTC)
予報対象時間: 18日2時 PHT ~ 19日8時 PHT
風向・風速西南西 4m/s
視程10km以上
少しの雲 雲底高度 700m
全天の4割程度の雲 雲底高度 9140m
18日2時 PHT ~ 18日8時 PHT に一時的に
風向・風速西南西 3m/s
少しの積乱雲 雲底高度 670m
全天の4割程度の雲 雲底高度 700m
全天の8割程度の雲 雲底高度 3050m
18日8時 PHT ~ 18日14時 PHT に一時的に
風向・風速南西 6m/s
全天の4割程度の雲 雲底高度 610m
全天の4割程度の雲 雲底高度 2740m
全天の8割程度の雲 雲底高度 9140m
TAF RPLL 171700Z 1718/1824 25008KT 9999 FEW023 SCT300 TX35/1806Z TN28/1722Z
TEMPO 1718/1724 24006KT FEW022CB SCT023 BKN100
TEMPO 1800/1806 22012KT SCT020 SCT090 BKN300